Time;durP1;ratioP1;P1;durP2;ratioP2;P2;SDS_P1;SDS_P2;PMS_P1;PMS_P2;Temp;Humidity;BMP_temperature;BMP_pressure;BME280_temperature;BME280_humidity;BME280_pressure;Samples;Min_cycle;Max_cycle;Signal;HPM_P1;HPM_P2
2023/07/30 00:00:30;;;;;;;7.40;5.28;;;;;;;16.24;96.86;100295.53;7395736;19;20081;-67
2023/07/30 00:02:59;;;;;;;5.82;5.28;;;;;;;16.19;96.86;100302.81;7395162;19;20082;-67
2023/07/30 00:05:27;;;;;;;6.85;6.13;;;;;;;16.16;96.91;100305.66;7395291;19;20006;-67
2023/07/30 00:07:55;;;;;;;6.10;5.00;;;;;;;16.11;97.15;100296.16;7391166;19;20014;-68
2023/07/30 00:10:24;;;;;;;5.85;5.18;;;;;;;16.07;97.13;100302.53;7395058;19;20010;-68
2023/07/30 00:12:55;;;;;;;6.10;5.50;;;;;;;16.04;97.04;100297.41;7393680;19;20011;-68
2023/07/30 00:15:23;;;;;;;8.10;6.10;;;;;;;16.00;97.26;100285.28;7394039;19;20035;-66
2023/07/30 00:17:52;;;;;;;6.00;5.50;;;;;;;15.99;97.26;100280.91;7393570;19;20031;-67
2023/07/30 00:20:20;;;;;;;6.97;5.60;;;;;;;15.97;97.35;100282.78;7395203;19;20014;-71
2023/07/30 00:22:49;;;;;;;6.32;5.72;;;;;;;15.94;97.30;100283.78;7394732;19;20541;-67
2023/07/30 00:25:17;;;;;;;7.95;5.90;;;;;;;15.92;97.33;100282.16;7395114;19;20032;-67
2023/07/30 00:27:46;;;;;;;6.82;5.47;;;;;;;15.88;97.12;100281.47;7392804;19;20023;-67
2023/07/30 00:30:17;;;;;;;8.63;5.95;;;;;;;15.86;97.56;100280.69;7394616;19;20020;-68
2023/07/30 00:32:45;;;;;;;6.38;5.72;;;;;;;15.84;97.73;100279.91;7394564;19;20082;-67
2023/07/30 00:35:14;;;;;;;7.70;5.85;;;;;;;15.82;97.71;100281.78;7392601;19;20347;-67
2023/07/30 00:37:42;;;;;;;10.98;5.93;;;;;;;15.82;97.68;100286.22;7393023;19;20083;-67
2023/07/30 00:40:11;;;;;;;7.35;6.38;;;;;;;15.80;97.69;100292.41;7394727;19;20082;-68
2023/07/30 00:42:40;;;;;;;6.25;5.70;;;;;;;15.77;97.67;100281.13;7394587;19;20022;-68
2023/07/30 00:45:10;;;;;;;6.60;5.93;;;;;;;15.78;97.59;100293.41;7394617;19;20010;-68
2023/07/30 00:47:42;;;;;;;8.63;5.57;;;;;;;15.76;97.68;100293.50;7392782;19;20040;-68
2023/07/30 00:50:13;;;;;;;7.45;6.50;;;;;;;15.75;97.49;100293.59;7395029;19;20011;-68
2023/07/30 00:52:42;;;;;;;7.47;6.40;;;;;;;15.72;97.14;100289.31;7394342;19;20074;-68
2023/07/30 00:55:12;;;;;;;9.23;6.05;;;;;;;15.69;97.59;100284.16;7393971;19;20514;-69
2023/07/30 00:57:41;;;;;;;7.07;6.07;;;;;;;15.67;97.40;100277.22;7392160;19;20070;-68
2023/07/30 01:00:11;;;;;;;6.95;6.18;;;;;;;15.63;97.49;100280.03;7394192;19;20018;-68
2023/07/30 01:02:42;;;;;;;8.50;6.22;;;;;;;15.61;97.38;100273.13;7394083;19;20028;-68
2023/07/30 01:05:11;;;;;;;7.80;6.40;;;;;;;15.60;97.36;100271.41;7394349;19;20070;-68
2023/07/30 01:07:39;;;;;;;7.63;5.97;;;;;;;15.58;97.53;100267.97;7391797;19;20082;-65
2023/07/30 01:10:09;;;;;;;6.70;6.18;;;;;;;15.56;97.35;100276.00;7391934;19;20011;-66
2023/07/30 01:12:42;;;;;;;9.90;7.00;;;;;;;15.54;97.49;100274.34;7394075;19;20018;-66
2023/07/30 01:15:12;;;;;;;7.93;6.30;;;;;;;15.54;97.47;100274.34;7393884;19;20025;-65
2023/07/30 01:17:43;;;;;;;7.00;6.40;;;;;;;15.53;97.50;100281.44;7392459;19;20018;-65
2023/07/30 01:20:13;;;;;;;7.63;6.80;;;;;;;15.52;97.86;100278.84;7401379;19;20019;-65
2023/07/30 01:22:44;;;;;;;7.57;6.85;;;;;;;15.52;97.91;100281.50;7398325;19;20018;-65
2023/07/30 01:25:13;;;;;;;7.72;6.32;;;;;;;15.51;97.79;100282.44;7401298;19;20073;-64
2023/07/30 01:27:46;;;;;;;13.10;6.78;;;;;;;15.50;97.70;100288.66;7398157;19;20018;-64
2023/07/30 01:30:20;;;;;;;8.02;6.40;;;;;;;15.49;97.79;100301.00;7398345;19;20066;-65
2023/07/30 01:32:51;;;;;;;7.82;6.43;;;;;;;15.46;97.66;100304.66;7401106;19;20014;-65
2023/07/30 01:35:23;;;;;;;9.68;6.72;;;;;;;15.44;97.90;100298.63;7401010;19;20014;-65
2023/07/30 01:38:02;;;;;;;7.00;6.30;;;;;;;15.43;97.58;100298.66;7397951;19;20010;-64
2023/07/30 01:40:30;;;;;;;8.32;7.10;;;;;;;15.42;97.69;100294.34;7398302;19;20010;-64
2023/07/30 01:42:59;;;;;;;6.95;6.32;;;;;;;15.41;97.81;100296.09;7397786;19;20074;-64
2023/07/30 01:45:27;;;;;;;8.45;6.72;;;;;;;15.40;97.77;100304.13;7397437;19;20415;-64
2023/07/30 01:47:55;;;;;;;8.00;6.60;;;;;;;15.38;98.04;100296.28;7397622;19;20032;-64
2023/07/30 01:50:24;;;;;;;8.27;7.03;;;;;;;15.37;97.83;100299.00;7396981;19;20084;-63
2023/07/30 01:52:52;;;;;;;7.53;6.78;;;;;;;15.35;97.97;100298.19;7399877;19;20010;-64
2023/07/30 01:55:23;;;;;;;7.75;6.75;;;;;;;15.34;98.23;100293.84;7397788;19;20069;-64
2023/07/30 01:57:52;;;;;;;8.00;7.30;;;;;;;15.30;98.03;100293.13;7397426;19;20082;-64
2023/07/30 02:00:27;;;;;;;8.88;6.70;;;;;;;15.29;98.04;100299.34;7399398;19;20621;-66
2023/07/30 02:02:55;;;;;;;9.35;7.38;;;;;;;15.28;98.23;100295.84;7397727;19;20038;-65
2023/07/30 02:05:24;;;;;;;12.07;7.90;;;;;;;15.27;98.66;100294.13;7399216;19;20074;-64
2023/07/30 02:07:52;;;;;;;9.13;8.32;;;;;;;15.27;98.56;100301.22;7396760;19;20014;-64
2023/07/30 02:10:23;;;;;;;9.93;8.20;;;;;;;15.26;99.16;100305.63;7397282;19;20074;-65
2023/07/30 02:12:52;;;;;;;8.77;7.95;;;;;;;15.26;99.24;100304.78;7399709;19;20022;-64
2023/07/30 02:15:20;;;;;;;10.88;8.75;;;;;;;15.25;99.09;100306.59;7398845;19;20533;-65
2023/07/30 02:17:48;;;;;;;9.30;8.30;;;;;;;15.23;99.44;100312.88;7396674;19;20087;-64
2023/07/30 02:20:17;;;;;;;9.95;8.95;;;;;;;15.21;99.50;100305.00;7398626;19;20078;-66
2023/07/30 02:22:46;;;;;;;11.30;9.05;;;;;;;15.22;99.88;100303.22;7396604;19;20074;-65
2023/07/30 02:25:14;;;;;;;10.30;8.65;;;;;;;15.20;100.00;100310.38;7398495;19;20010;-65
2023/07/30 02:27:45;;;;;;;12.30;9.07;;;;;;;15.20;100.00;100302.44;7396489;19;20074;-65
2023/07/30 02:30:14;;;;;;;11.23;9.30;;;;;;;15.19;100.00;100306.00;7394805;19;20082;-65
2023/07/30 02:32:43;;;;;;;13.93;9.32;;;;;;;15.20;100.00;100305.91;7398540;19;20035;-66
2023/07/30 02:35:12;;;;;;;11.18;8.02;;;;;;;15.21;100.00;100323.50;7398693;19;20074;-68
2023/07/30 02:37:40;;;;;;;12.00;9.32;;;;;;;15.20;100.00;100308.56;7396557;19;20010;-67
2023/07/30 02:40:10;;;;;;;9.95;9.05;;;;;;;15.20;100.00;100313.00;7396403;19;20018;-67
2023/07/30 02:42:38;;;;;;;9.63;8.65;;;;;;;15.20;100.00;100313.00;7397678;19;20545;-67
2023/07/30 02:45:10;;;;;;;9.40;8.45;;;;;;;15.17;100.00;100314.00;7398335;19;20031;-67
2023/07/30 02:47:39;;;;;;;10.48;8.57;;;;;;;15.20;100.00;100313.84;7396558;19;20027;-67
2023/07/30 02:50:08;;;;;;;9.65;8.27;;;;;;;15.19;100.00;100327.16;7396252;19;20168;-67
2023/07/30 02:52:37;;;;;;;8.95;7.70;;;;;;;15.19;100.00;100325.38;7395874;19;20014;-67
2023/07/30 02:55:06;;;;;;;8.98;8.07;;;;;;;15.19;100.00;100333.31;7397489;19;20402;-65
2023/07/30 02:57:34;;;;;;;8.90;7.95;;;;;;;15.18;100.00;100330.72;7396172;19;20089;-66
2023/07/30 03:00:03;;;;;;;9.10;7.85;;;;;;;15.16;100.00;100336.06;7397745;19;20010;-66
2023/07/30 03:02:34;;;;;;;9.60;7.93;;;;;;;15.16;100.00;100338.72;7397178;19;20362;-67
2023/07/30 03:05:03;;;;;;;8.95;8.00;;;;;;;15.14;100.00;100341.44;7397234;19;20079;-67
2023/07/30 03:07:31;;;;;;;9.57;8.68;;;;;;;15.13;100.00;100341.53;7395614;19;20014;-66
2023/07/30 03:10:00;;;;;;;10.45;7.97;;;;;;;15.11;100.00;100341.59;7395441;19;20070;-67
2023/07/30 03:12:28;;;;;;;9.90;8.25;;;;;;;15.10;100.00;100342.53;7397087;19;20022;-66
2023/07/30 03:14:57;;;;;;;9.00;7.55;;;;;;;15.10;100.00;100337.25;7396732;19;20070;-65
2023/07/30 03:17:25;;;;;;;8.02;7.32;;;;;;;15.09;100.00;100351.38;7395735;19;20031;-66
2023/07/30 03:19:56;;;;;;;8.38;7.57;;;;;;;15.09;100.00;100338.16;7396618;19;20014;-67
2023/07/30 03:22:25;;;;;;;9.30;7.75;;;;;;;15.09;100.00;100335.50;7397347;19;20024;-66
2023/07/30 03:24:53;;;;;;;9.95;8.77;;;;;;;15.11;100.00;100338.97;7396540;19;20006;-66
2023/07/30 03:27:22;;;;;;;9.48;7.47;;;;;;;15.13;100.00;100338.88;7394607;19;20498;-66
2023/07/30 03:29:50;;;;;;;9.13;7.30;;;;;;;15.14;100.00;100338.78;7395723;19;20014;-67
2023/07/30 03:32:18;;;;;;;8.82;7.70;;;;;;;15.16;100.00;100341.34;7395994;19;20069;-66
2023/07/30 03:34:47;;;;;;;8.40;7.70;;;;;;;15.17;100.00;100345.72;7396591;19;20070;-66
2023/07/30 03:37:18;;;;;;;8.80;7.60;;;;;;;15.20;100.00;100339.44;7394232;19;20498;-66
2023/07/30 03:39:46;;;;;;;9.40;7.07;;;;;;;15.20;100.00;100350.84;7395993;19;20418;-66
2023/07/30 03:42:15;;;;;;;7.38;6.68;;;;;;;15.22;100.00;100342.88;7393263;19;20010;-66
2023/07/30 03:44:43;;;;;;;10.13;7.43;;;;;;;15.23;100.00;100340.16;7396170;19;20003;-66
2023/07/30 03:47:12;;;;;;;8.18;7.15;;;;;;;15.25;100.00;100346.22;7394845;19;20051;-66
2023/07/30 03:49:40;;;;;;;8.93;7.95;;;;;;;15.27;100.00;100346.16;7394605;19;20010;-67
2023/07/30 03:52:09;;;;;;;8.25;7.47;;;;;;;15.29;100.00;100338.97;7394010;19;20014;-66
2023/07/30 03:54:40;;;;;;;12.50;7.00;;;;;;;15.31;100.00;100345.06;7395518;19;20074;-66
2023/07/30 03:57:09;;;;;;;9.30;7.47;;;;;;;15.32;100.00;100342.34;7394464;19;20082;-66
2023/07/30 03:59:37;;;;;;;8.77;7.35;;;;;;;15.36;100.00;100344.84;7395968;19;20024;-67
2023/07/30 04:02:07;;;;;;;9.65;7.05;;;;;;;15.38;100.00;100351.78;7395178;19;20090;-66
2023/07/30 04:04:35;;;;;;;8.23;7.10;;;;;;;15.41;100.00;100348.97;7395055;19;20015;-66
2023/07/30 04:07:03;;;;;;;10.73;8.93;;;;;;;15.43;100.00;100341.84;7393909;19;20494;-66
2023/07/30 04:09:32;;;;;;;10.07;7.45;;;;;;;15.47;100.00;100346.03;7394145;19;20015;-66
2023/07/30 04:12:03;;;;;;;10.02;6.93;;;;;;;15.50;100.00;100342.38;7395404;19;20027;-67
2023/07/30 04:14:31;;;;;;;7.65;6.53;;;;;;;15.54;100.00;100351.03;7395809;19;20028;-66
2023/07/30 04:17:00;;;;;;;9.65;7.70;;;;;;;15.56;100.00;100351.81;7394147;19;20014;-66
2023/07/30 04:19:28;;;;;;;8.07;6.80;;;;;;;15.57;100.00;100349.09;7395299;19;20073;-66
2023/07/30 04:21:57;;;;;;;7.63;6.88;;;;;;;15.61;100.00;100361.22;7392838;19;20019;-66
2023/07/30 04:24:25;;;;;;;7.55;6.75;;;;;;;15.63;100.00;100359.38;7394254;19;20556;-66
2023/07/30 04:26:54;;;;;;;8.25;6.93;;;;;;;15.68;100.00;100363.56;7393623;19;20358;-66
2023/07/30 04:29:32;;;;;;;8.02;6.60;;;;;;;15.71;100.00;100361.63;7393107;19;20022;-66
2023/07/30 04:32:00;;;;;;;6.68;5.82;;;;;;;15.76;100.00;100364.91;7395416;19;20070;-66
2023/07/30 04:34:29;;;;;;;8.52;6.28;;;;;;;15.80;100.00;100357.69;7393016;19;20081;-67
2023/07/30 04:36:57;;;;;;;7.82;6.30;;;;;;;15.86;100.00;100359.19;7393303;19;20508;-66
2023/07/30 04:39:26;;;;;;;7.00;5.97;;;;;;;15.91;99.77;100354.50;7394245;19;20096;-66
2023/07/30 04:41:54;;;;;;;9.82;6.57;;;;;;;15.97;99.99;100359.50;7395043;19;20015;-66
2023/07/30 04:44:23;;;;;;;7.10;6.00;;;;;;;16.00;99.58;100359.38;7394159;19;20439;-66
2023/07/30 04:46:54;;;;;;;7.38;5.72;;;;;;;16.05;98.89;100372.34;7393067;19;20010;-66
2023/07/30 04:49:22;;;;;;;8.73;6.15;;;;;;;16.08;99.10;100367.75;7393765;19;20494;-67
2023/07/30 04:51:51;;;;;;;7.82;6.25;;;;;;;16.11;98.81;100370.25;7394375;19;20082;-66
2023/07/30 04:54:19;;;;;;;8.02;6.28;;;;;;;16.12;98.72;100366.69;7400157;19;20010;-66
2023/07/30 04:56:48;;;;;;;6.85;6.25;;;;;;;16.15;98.85;100363.03;7400001;19;20032;-66
2023/07/30 04:59:16;;;;;;;7.65;6.53;;;;;;;16.17;98.72;100362.94;7401588;19;20087;-66
2023/07/30 05:01:45;;;;;;;7.07;5.78;;;;;;;16.19;98.93;100371.63;7399048;19;20019;-66
2023/07/30 05:04:16;;;;;;;6.25;5.55;;;;;;;16.20;98.89;100362.75;7401226;19;20379;-66
2023/07/30 05:06:44;;;;;;;7.20;5.90;;;;;;;16.21;98.84;100364.47;7400371;19;20010;-66
2023/07/30 05:09:13;;;;;;;7.22;6.53;;;;;;;16.23;98.86;100367.91;7398640;19;20014;-66
2023/07/30 05:11:42;;;;;;;11.55;6.40;;;;;;;16.24;98.75;100370.47;7400905;19;20017;-67
2023/07/30 05:14:10;;;;;;;7.25;6.40;;;;;;;16.27;98.91;100369.47;7398580;19;20014;-67
2023/07/30 05:16:38;;;;;;;8.07;6.47;;;;;;;16.29;98.70;100371.09;7399885;19;20027;-66
2023/07/30 05:19:08;;;;;;;7.25;6.53;;;;;;;16.33;98.65;100361.22;7401075;19;20477;-67
2023/07/30 05:21:39;;;;;;;11.05;6.60;;;;;;;16.38;98.84;100366.28;7400590;19;20030;-67
2023/07/30 05:24:08;;;;;;;9.27;6.53;;;;;;;16.42;98.68;100366.00;7401330;19;20363;-66
2023/07/30 05:26:36;;;;;;;7.47;6.68;;;;;;;16.50;98.76;100362.13;7397673;19;20074;-66
2023/07/30 05:29:05;;;;;;;7.95;6.60;;;;;;;16.56;98.73;100375.88;7398515;19;20018;-66
2023/07/30 05:31:34;;;;;;;7.53;6.07;;;;;;;16.65;98.77;100373.69;7398145;19;20018;-66
2023/07/30 05:34:02;;;;;;;9.27;6.75;;;;;;;16.71;98.68;100376.88;7398173;19;20018;-66
2023/07/30 05:36:31;;;;;;;11.15;5.72;;;;;;;16.78;98.65;100377.38;7397870;19;20015;-66
2023/07/30 05:39:02;;;;;;;9.40;6.38;;;;;;;16.85;98.35;100381.44;7399963;19;20576;-67
2023/07/30 05:41:30;;;;;;;7.57;5.82;;;;;;;16.89;97.84;100379.47;7400369;19;20099;-66
2023/07/30 05:43:59;;;;;;;7.35;5.80;;;;;;;16.96;98.18;100374.72;7399793;19;20007;-67
2023/07/30 05:46:27;;;;;;;7.07;5.75;;;;;;;17.01;98.07;100370.03;7399171;19;20086;-66
2023/07/30 05:48:56;;;;;;;6.65;5.90;;;;;;;17.04;97.74;100370.72;7399909;19;20006;-67
2023/07/30 05:51:24;;;;;;;6.70;5.50;;;;;;;17.08;97.35;100366.94;7397517;19;20384;-66
2023/07/30 05:53:52;;;;;;;7.95;6.22;;;;;;;17.12;97.55;100369.44;7399846;19;20070;-67
2023/07/30 05:56:24;;;;;;;9.35;5.75;;;;;;;17.13;97.47;100365.84;7397428;19;20376;-67
2023/07/30 05:58:49;;;;;;;6.55;5.53;;;;;;;17.19;97.11;100368.16;7399949;19;20027;-67
2023/07/30 06:01:19;;;;;;;7.40;5.72;;;;;;;17.22;97.19;100378.59;7397106;19;20481;-67
2023/07/30 06:03:48;;;;;;;6.45;5.80;;;;;;;17.22;96.99;100373.28;7398255;19;20010;-67
2023/07/30 06:06:17;;;;;;;8.43;6.20;;;;;;;17.25;97.32;100379.28;7395467;19;20044;-67
2023/07/30 06:08:45;;;;;;;7.22;5.70;;;;;;;17.30;97.22;100380.81;7397053;19;20079;-67
2023/07/30 06:11:14;;;;;;;6.55;5.72;;;;;;;17.36;97.25;100377.81;7397521;19;20031;-67
2023/07/30 06:13:45;;;;;;;6.05;5.47;;;;;;;17.45;96.88;100379.09;7398968;19;20382;-67
2023/07/30 06:16:13;;;;;;;7.65;5.65;;;;;;;17.54;96.82;100373.28;7398515;19;20363;-67
2023/07/30 06:18:42;;;;;;;7.55;6.70;;;;;;;17.62;96.75;100372.84;7399155;19;20014;-67
2023/07/30 06:21:10;;;;;;;9.35;6.32;;;;;;;17.68;96.47;100378.66;7399060;19;20094;-67
2023/07/30 06:23:39;;;;;;;7.13;5.65;;;;;;;17.74;96.51;100374.78;7398975;19;20014;-67
2023/07/30 06:26:07;;;;;;;9.18;5.97;;;;;;;17.79;96.52;100372.72;7397939;19;20492;-67
2023/07/30 06:28:36;;;;;;;7.93;5.88;;;;;;;17.83;96.00;100371.63;7396335;19;20078;-67
2023/07/30 06:31:07;;;;;;;9.27;6.20;;;;;;;17.87;95.89;100375.78;7397418;19;20090;-67
2023/07/30 06:33:35;;;;;;;6.88;5.80;;;;;;;17.91;96.37;100377.31;7398809;19;20010;-66
2023/07/30 06:36:04;;;;;;;6.13;5.53;;;;;;;17.98;96.13;100379.66;7398089;19;20027;-67
2023/07/30 06:38:32;;;;;;;6.22;4.80;;;;;;;18.06;95.57;100386.22;7398058;19;20019;-67
2023/07/30 06:41:01;;;;;;;8.40;5.60;;;;;;;18.15;95.39;100379.50;7398287;19;20011;-67
2023/07/30 06:43:29;;;;;;;7.93;5.10;;;;;;;18.22;95.31;100369.38;7397990;19;20024;-67
2023/07/30 06:45:58;;;;;;;6.72;5.38;;;;;;;18.28;94.39;100379.63;7397760;19;20023;-67
2023/07/30 06:48:29;;;;;;;6.00;4.68;;;;;;;18.34;94.34;100387.22;7398103;19;20090;-67
2023/07/30 06:50:57;;;;;;;15.05;5.38;;;;;;;18.38;93.91;100382.59;7396556;19;20023;-67
2023/07/30 06:53:26;;;;;;;5.22;4.72;;;;;;;18.42;94.02;100380.59;7395801;19;20015;-66
2023/07/30 06:55:54;;;;;;;5.13;4.68;;;;;;;18.46;94.20;100380.31;7397223;19;20512;-66
2023/07/30 06:58:23;;;;;;;9.57;3.95;;;;;;;18.50;93.89;100383.63;7397453;19;20011;-66
2023/07/30 07:00:51;;;;;;;3.50;2.90;;;;;;;18.54;92.32;100377.22;7397665;19;20007;-66
2023/07/30 07:03:20;;;;;;;7.05;3.00;;;;;;;18.55;91.03;100377.13;7397565;19;20078;-66
2023/07/30 07:05:58;;;;;;;3.00;2.72;;;;;;;18.60;90.70;100374.16;7395187;19;20066;-66
2023/07/30 07:08:27;;;;;;;3.50;3.17;;;;;;;18.66;90.11;100373.78;7397596;19;20010;-66
2023/07/30 07:10:55;;;;;;;3.20;2.70;;;;;;;18.72;88.70;100376.06;7395189;19;20007;-66
2023/07/30 07:13:24;;;;;;;3.63;2.83;;;;;;;18.80;88.52;100380.91;7397214;19;20070;-66
2023/07/30 07:15:52;;;;;;;2.53;2.33;;;;;;;18.86;87.12;100369.88;7396305;19;20018;-65
2023/07/30 07:18:21;;;;;;;2.92;2.10;;;;;;;18.92;85.78;100368.69;7397098;19;20078;-66
2023/07/30 07:20:56;;;;;;;5.13;2.47;;;;;;;18.99;84.55;100375.34;7395911;19;20030;-66
2023/07/30 07:23:27;;;;;;;5.80;3.10;;;;;;;19.07;83.11;100380.19;7396437;19;20015;-67
2023/07/30 07:25:55;;;;;;;3.65;2.42;;;;;;;19.15;82.17;100379.69;7396944;19;20090;-66
2023/07/30 07:28:24;;;;;;;4.32;2.72;;;;;;;19.21;80.69;100379.28;7395264;19;20027;-67
2023/07/30 07:30:52;;;;;;;2.85;2.28;;;;;;;19.26;79.48;100387.84;7395952;19;20082;-66
2023/07/30 07:33:20;;;;;;;3.70;2.72;;;;;;;19.32;79.45;100386.56;7394406;19;20387;-66
2023/07/30 07:35:49;;;;;;;5.07;2.60;;;;;;;19.41;79.24;100385.13;7396138;19;20028;-66
2023/07/30 07:38:18;;;;;;;4.88;2.65;;;;;;;19.49;78.24;100388.16;7396448;19;20014;-66
2023/07/30 07:40:49;;;;;;;3.95;2.78;;;;;;;19.55;76.90;100387.75;7396794;19;20074;-65
2023/07/30 07:43:17;;;;;;;3.35;2.45;;;;;;;19.64;77.35;100395.13;7396262;19;20436;-66
2023/07/30 07:45:45;;;;;;;2.70;2.50;;;;;;;19.69;75.95;100386.84;7395821;19;20066;-66
2023/07/30 07:48:14;;;;;;;2.72;2.33;;;;;;;19.72;74.54;100378.66;7396196;19;20018;-67
2023/07/30 07:50:42;;;;;;;5.05;2.42;;;;;;;19.77;74.00;100384.53;7394930;19;20023;-67
2023/07/30 07:53:11;;;;;;;3.20;2.40;;;;;;;19.82;73.72;100378.91;7395940;19;20018;-66
2023/07/30 07:55:39;;;;;;;4.22;2.67;;;;;;;19.88;73.96;100397.16;7393909;19;20509;-66
2023/07/30 07:58:10;;;;;;;4.82;2.40;;;;;;;19.95;73.64;100386.97;7395551;19;20355;-67
2023/07/30 08:00:39;;;;;;;2.85;2.50;;;;;;;20.01;70.90;100394.53;7395965;19;20027;-67
2023/07/30 08:03:07;;;;;;;4.13;2.20;;;;;;;20.07;69.64;100401.25;7395780;19;20023;-67
2023/07/30 08:05:36;;;;;;;5.72;2.78;;;;;;;20.11;68.67;100397.44;7393391;19;20376;-66
2023/07/30 08:08:04;;;;;;;2.72;1.55;;;;;;;20.18;67.87;100399.59;7393215;19;20014;-66
2023/07/30 08:10:33;;;;;;;2.58;1.98;;;;;;;20.26;66.72;100392.88;7392869;19;20082;-66
2023/07/30 08:13:01;;;;;;;2.25;1.60;;;;;;;20.29;63.90;100396.16;7395429;19;20031;-66
2023/07/30 08:15:32;;;;;;;3.72;1.92;;;;;;;20.31;64.48;100396.94;7393487;19;20007;-66
2023/07/30 08:18:01;;;;;;;2.15;1.80;;;;;;;20.34;62.55;100396.72;7393389;19;20019;-66
2023/07/30 08:20:29;;;;;;;3.75;1.60;;;;;;;20.40;63.42;100392.78;7395125;19;20027;-66
2023/07/30 08:22:58;;;;;;;4.50;1.83;;;;;;;20.41;61.31;100390.97;7395164;19;20090;-66
2023/07/30 08:25:26;;;;;;;2.22;1.50;;;;;;;20.44;61.78;100399.59;7393256;19;20015;-66
2023/07/30 08:27:55;;;;;;;3.78;1.83;;;;;;;20.48;61.48;100392.25;7394340;19;20022;-66
2023/07/30 08:30:23;;;;;;;2.83;1.77;;;;;;;20.48;61.19;100390.44;7399025;19;20010;-67
2023/07/30 08:32:54;;;;;;;2.67;1.60;;;;;;;20.49;57.99;100385.97;7402257;19;20019;-66
2023/07/30 08:35:23;;;;;;;2.88;1.50;;;;;;;20.54;60.04;100386.50;7402215;19;20014;-66
2023/07/30 08:37:51;;;;;;;3.30;1.60;;;;;;;20.59;59.30;100394.19;7399439;19;20089;-65
2023/07/30 08:40:20;;;;;;;2.70;1.70;;;;;;;20.64;59.58;100405.38;7401708;19;20375;-66
2023/07/30 08:42:49;;;;;;;2.88;1.85;;;;;;;20.68;58.98;100405.03;7401539;19;20496;-66
2023/07/30 08:45:18;;;;;;;2.70;2.00;;;;;;;20.77;59.10;100397.41;7402106;19;20010;-66
2023/07/30 08:47:48;;;;;;;3.80;1.65;;;;;;;20.87;59.13;100400.28;7398714;19;20369;-66
2023/07/30 08:50:19;;;;;;;5.38;1.90;;;;;;;20.94;57.44;100399.72;7401907;19;20074;-66
2023/07/30 08:52:50;;;;;;;3.78;1.90;;;;;;;21.01;56.84;100404.63;7398579;19;20516;-66
2023/07/30 08:55:21;;;;;;;2.25;1.50;;;;;;;21.07;57.26;100404.19;7401933;19;20006;-66
2023/07/30 08:57:50;;;;;;;4.00;2.00;;;;;;;21.15;58.34;100393.81;7398495;19;20010;-66
2023/07/30 09:00:22;;;;;;;4.30;2.10;;;;;;;21.22;58.03;100395.09;7401546;19;20015;-66
2023/07/30 09:02:53;;;;;;;4.70;1.92;;;;;;;21.30;58.64;100390.03;7401452;19;20030;-66
2023/07/30 09:05:25;;;;;;;3.30;1.92;;;;;;;21.37;57.20;100386.94;7402014;19;20081;-67
2023/07/30 09:07:53;;;;;;;3.20;2.20;;;;;;;21.45;58.36;100387.22;7398248;19;20491;-67
2023/07/30 09:10:22;;;;;;;3.50;2.00;;;;;;;21.53;58.62;100390.16;7400981;19;20014;-65
2023/07/30 09:12:55;;;;;;;2.38;1.98;;;;;;;21.59;56.26;100392.44;7398300;19;20033;-66
2023/07/30 09:15:50;;;;;;;5.10;2.33;;;;;;;21.63;56.59;100388.59;7400850;19;20038;-66
2023/07/30 09:18:19;;;;;;;;;;;;;;;21.68;54.84;100392.72;7402314;19;20359;-66
2023/07/30 09:20:50;;;;;;;2.92;2.10;;;;;;;21.77;56.89;100394.69;7397735;19;19990;-66
2023/07/30 09:23:20;;;;;;;3.00;2.08;;;;;;;21.86;57.45;100394.00;7400453;19;20018;-67
2023/07/30 09:25:51;;;;;;;2.47;2.20;;;;;;;21.96;56.45;100392.38;7400643;19;20007;-67
2023/07/30 09:28:40;;;;;;;3.45;1.75;;;;;;;22.05;54.02;100396.16;7399505;19;20365;-66
2023/07/30 09:31:10;;;;;;;2.67;2.05;;;;;;;22.05;53.39;100401.50;7399751;19;20584;-66
2023/07/30 09:33:44;;;;;;;3.40;1.85;;;;;;;22.02;53.34;100401.72;7401013;19;20010;-67
2023/07/30 09:36:15;;;;;;;4.00;2.10;;;;;;;22.00;53.97;100402.81;7400129;19;20074;-66
2023/07/30 09:38:45;;;;;;;3.25;1.90;;;;;;;21.92;53.79;100428.25;7400546;19;20011;-67
2023/07/30 09:41:14;;;;;;;4.30;2.15;;;;;;;21.84;51.47;100422.66;7397200;19;20415;-66
2023/07/30 09:43:43;;;;;;;3.75;2.05;;;;;;;21.80;54.00;100421.19;7398963;19;20014;-66
2023/07/30 09:46:12;;;;;;;3.50;2.20;;;;;;;21.75;54.14;100418.84;7398730;19;20031;-66
2023/07/30 09:48:40;;;;;;;3.72;2.03;;;;;;;21.67;52.84;100420.38;7399752;19;20007;-67
2023/07/30 09:51:09;;;;;;;4.43;2.35;;;;;;;21.66;53.41;100416.00;7398867;19;20023;-67
2023/07/30 09:53:40;;;;;;;3.45;2.08;;;;;;;21.72;53.42;100427.06;7399810;19;20078;-67
2023/07/30 09:56:09;;;;;;;3.47;2.00;;;;;;;21.84;54.31;100411.97;7399518;19;20010;-67
2023/07/30 09:58:38;;;;;;;2.67;1.90;;;;;;;21.96;53.58;100407.53;7399584;19;20007;-67
2023/07/30 10:01:08;;;;;;;2.28;1.80;;;;;;;22.10;53.58;100414.50;7399176;19;20014;-67
2023/07/30 10:03:38;;;;;;;5.05;2.00;;;;;;;22.25;51.84;100417.81;7399594;19;20078;-67
2023/07/30 10:06:07;;;;;;;3.25;1.95;;;;;;;22.35;51.40;100410.81;7398169;19;20066;-67
2023/07/30 10:08:42;;;;;;;3.13;1.88;;;;;;;22.44;49.51;100418.16;7398429;19;20007;-67
2023/07/30 10:11:12;;;;;;;3.88;2.15;;;;;;;22.57;48.79;100419.88;7398222;19;20010;-67
2023/07/30 10:13:43;;;;;;;2.78;1.90;;;;;;;22.67;48.03;100425.34;7399151;19;20037;-67
2023/07/30 10:16:13;;;;;;;5.63;2.00;;;;;;;22.74;49.79;100407.88;7398417;19;20533;-67
2023/07/30 10:18:42;;;;;;;7.15;1.77;;;;;;;22.79;49.35;100411.03;7400767;19;20017;-67
2023/07/30 10:21:11;;;;;;;3.92;2.00;;;;;;;22.83;48.90;100406.28;7398672;19;20034;-67
2023/07/30 10:24:01;;;;;;;2.53;1.73;;;;;;;22.88;47.50;100412.13;7398901;19;20014;-67
2023/07/30 10:26:31;;;;;;;2.60;1.55;;;;;;;22.88;49.43;100410.28;7398419;19;20102;-65
2023/07/30 10:29:15;;;;;;;4.32;1.90;;;;;;;22.91;47.21;100411.88;7396004;19;20373;-66
2023/07/30 10:31:44;;;;;;;6.80;1.92;;;;;;;22.96;48.30;100406.16;7398126;19;20368;-66
2023/07/30 10:34:13;;;;;;;3.67;1.83;;;;;;;22.98;47.78;100405.06;7398419;19;20031;-65
2023/07/30 10:36:47;;;;;;;7.28;1.95;;;;;;;23.02;45.30;100397.66;7396697;19;20342;-67
2023/07/30 10:39:20;;;;;;;3.50;2.17;;;;;;;23.11;45.35;100407.63;7398615;19;20015;-66
2023/07/30 10:41:51;;;;;;;4.72;2.30;;;;;;;23.20;47.21;100411.41;7398474;19;20013;-67
2023/07/30 10:44:27;;;;;;;3.78;1.48;;;;;;;23.29;44.83;100413.38;7397979;19;20086;-66
2023/07/30 10:46:56;;;;;;;3.88;2.20;;;;;;;23.27;44.33;100404.59;7397310;19;20027;-66
2023/07/30 10:49:25;;;;;;;4.15;1.83;;;;;;;23.29;45.80;100410.69;7397764;19;20014;-66
2023/07/30 10:51:55;;;;;;;3.55;2.13;;;;;;;23.28;44.50;100408.97;7393855;19;20384;-66
2023/07/30 10:54:26;;;;;;;2.55;1.92;;;;;;;23.25;44.95;100410.09;7397691;19;20011;-66
2023/07/30 10:56:56;;;;;;;4.95;1.55;;;;;;;23.27;45.42;100408.13;7394239;19;20019;-66
2023/07/30 10:59:25;;;;;;;2.63;1.55;;;;;;;23.37;45.12;100399.34;7396208;19;20070;-67
2023/07/30 11:01:55;;;;;;;2.90;1.95;;;;;;;23.50;43.39;100418.78;7396287;19;20011;-67
2023/07/30 11:04:24;;;;;;;3.78;1.65;;;;;;;23.60;44.47;100402.81;7396627;19;20070;-66
2023/07/30 11:06:53;;;;;;;2.20;1.40;;;;;;;23.69;44.15;100399.38;7395605;19;20014;-67
2023/07/30 11:09:23;;;;;;;3.15;1.92;;;;;;;23.81;44.53;100405.56;7396809;19;20074;-67
2023/07/30 11:11:55;;;;;;;3.75;1.75;;;;;;;23.88;43.84;100400.53;7395737;19;20007;-66
2023/07/30 11:14:25;;;;;;;3.10;1.70;;;;;;;23.86;43.96;100395.31;7396407;19;20477;-67
2023/07/30 11:16:55;;;;;;;13.38;6.97;;;;;;;23.86;43.69;100376.56;7395169;19;20014;-66
2023/07/30 11:19:24;;;;;;;5.15;2.17;;;;;;;23.93;43.63;100379.59;7396162;19;20090;-66
2023/07/30 11:21:54;;;;;;;3.60;1.85;;;;;;;24.01;43.44;100378.94;7395686;19;20007;-66
2023/07/30 11:24:24;;;;;;;4.03;1.75;;;;;;;24.04;43.70;100384.06;7394517;19;20010;-66
2023/07/30 11:27:02;;;;;;;5.72;2.28;;;;;;;24.09;42.75;100389.88;7395390;19;20019;-67
2023/07/30 11:29:31;;;;;;;5.15;2.53;;;;;;;24.16;44.14;100383.03;7393811;19;20019;-66
2023/07/30 11:32:02;;;;;;;4.05;1.92;;;;;;;24.24;43.69;100393.94;7394122;19;20019;-66
2023/07/30 11:34:35;;;;;;;5.00;1.70;;;;;;;24.32;43.60;100385.22;7395654;19;20015;-66